Time;durP1;ratioP1;P1;durP2;ratioP2;P2;SDS_P1;SDS_P2;PMS_P1;PMS_P2;Temp;Humidity;BMP_temperature;BMP_pressure;BME280_temperature;BME280_humidity;BME280_pressure;Samples;Min_cycle;Max_cycle;Signal;HPM_P1;HPM_P2
2023/03/06 00:00:04;;;;;;;;;;;20.20;78.00;;;;;;5075391;28;19908;-53
2023/03/06 00:02:29;;;;;;;;;;;20.20;77.90;;;;;;5075419;28;19908;-54
2023/03/06 00:04:55;;;;;;;;;;;20.20;78.10;;;;;;5057568;28;19924;-51
2023/03/06 00:07:21;;;;;;;;;;;20.20;77.80;;;;;;5075868;28;19909;-50
2023/03/06 00:09:46;;;;;;;;;;;20.30;78.10;;;;;;5075232;28;19916;-53
2023/03/06 00:12:12;;;;;;;;;;;20.20;77.90;;;;;;5075413;28;20364;-52
2023/03/06 00:14:37;;;;;;;;;;;20.30;78.20;;;;;;5075082;28;19908;-52
2023/03/06 00:17:03;;;;;;;;;;;20.30;78.20;;;;;;5057431;28;19909;-52
2023/03/06 00:19:28;;;;;;;;;;;20.30;78.00;;;;;;5075654;28;19909;-52
2023/03/06 00:21:54;;;;;;;;;;;20.30;78.50;;;;;;5075000;28;20030;-55
2023/03/06 00:24:19;;;;;;;;;;;20.30;78.20;;;;;;5075176;28;20267;-51
2023/03/06 00:26:45;;;;;;;;;;;20.30;78.40;;;;;;5075233;28;20275;-54
2023/03/06 00:29:10;;;;;;;;;;;20.20;78.00;;;;;;5075150;28;19954;-54
2023/03/06 00:31:35;;;;;;;;;;;20.30;78.00;;;;;;5075051;28;19908;-50
2023/03/06 00:34:01;;;;;;;;;;;20.30;78.10;;;;;;5074756;28;19920;-53
2023/03/06 00:36:27;;;;;;;;;;;20.30;78.00;;;;;;5056267;28;19908;-51
2023/03/06 00:38:52;;;;;;;;;;;20.30;78.10;;;;;;5074474;28;19915;-50
2023/03/06 00:41:18;;;;;;;;;;;20.30;78.10;;;;;;5056790;28;20375;-50
2023/03/06 00:43:44;;;;;;;;;;;20.30;78.10;;;;;;5074569;28;19909;-51
2023/03/06 00:46:09;;;;;;;;;;;20.20;77.80;;;;;;5074799;28;20080;-53
2023/03/06 00:48:35;;;;;;;;;;;20.20;77.70;;;;;;5074540;28;19912;-54
2023/03/06 00:51:00;;;;;;;;;;;20.20;78.00;;;;;;5074766;28;19930;-51
2023/03/06 00:53:26;;;;;;;;;;;20.20;77.90;;;;;;5074361;28;20343;-52
2023/03/06 00:55:51;;;;;;;;;;;20.20;78.00;;;;;;5074296;28;19912;-51
2023/03/06 00:58:17;;;;;;;;;;;20.20;78.10;;;;;;5074318;28;19912;-51
2023/03/06 01:00:43;;;;;;;;;;;20.20;78.20;;;;;;5056573;28;20267;-53
2023/03/06 01:03:09;;;;;;;;;;;20.20;78.20;;;;;;5074273;28;19916;-51
2023/03/06 01:05:37;;;;;;;;;;;20.20;78.20;;;;;;5074121;28;19917;-52
2023/03/06 01:08:03;;;;;;;;;;;20.20;78.50;;;;;;5074216;28;19908;-53
2023/03/06 01:10:29;;;;;;;;;;;20.20;77.90;;;;;;5074514;28;20030;-54
2023/03/06 01:12:54;;;;;;;;;;;20.20;77.80;;;;;;5056378;28;19908;-53
2023/03/06 01:15:20;;;;;;;;;;;20.20;78.40;;;;;;5074075;28;19908;-52
2023/03/06 01:17:46;;;;;;;;;;;20.20;77.80;;;;;;5074048;28;19999;-50
2023/03/06 01:20:13;;;;;;;;;;;20.20;77.90;;;;;;5074294;28;20367;-55
2023/03/06 01:22:38;;;;;;;;;;;20.20;77.80;;;;;;5074009;28;19970;-55
2023/03/06 01:25:04;;;;;;;;;;;20.30;78.00;;;;;;5073904;28;20356;-53
2023/03/06 01:27:29;;;;;;;;;;;20.30;78.10;;;;;;5074192;28;19909;-52
2023/03/06 01:29:55;;;;;;;;;;;20.30;78.40;;;;;;5074167;28;19908;-52
2023/03/06 01:32:20;;;;;;;;;;;20.30;77.60;;;;;;5074181;28;19908;-50
2023/03/06 01:34:46;;;;;;;;;;;20.30;78.00;;;;;;5074067;28;19909;-52
2023/03/06 01:37:11;;;;;;;;;;;20.40;78.20;;;;;;5073845;28;19913;-52
2023/03/06 01:39:37;;;;;;;;;;;20.40;78.20;;;;;;5055949;28;19981;-52
2023/03/06 01:42:03;;;;;;;;;;;20.40;78.20;;;;;;5073783;28;20245;-54
2023/03/06 01:44:28;;;;;;;;;;;20.40;77.80;;;;;;5073692;28;19909;-54
2023/03/06 01:46:54;;;;;;;;;;;20.40;78.00;;;;;;5075635;28;19909;-51
2023/03/06 01:49:35;;;;;;;;;;;20.10;69.60;;;;;;5080326;28;19955;-52
2023/03/06 01:52:09;;;;;;;;;;;19.90;73.60;;;;;;5062598;28;20425;-53
2023/03/06 01:54:37;;;;;;;;;;;20.00;76.40;;;;;;5080621;28;19915;-50
2023/03/06 01:57:04;;;;;;;;;;;20.20;77.00;;;;;;5080613;28;19908;-49
2023/03/06 01:59:32;;;;;;;;;;;20.20;76.90;;;;;;5080577;28;19908;-52
2023/03/06 02:02:00;;;;;;;;;;;20.20;76.90;;;;;;5080826;28;20000;-54
2023/03/06 02:04:26;;;;;;;;;;;20.20;77.10;;;;;;5062408;28;19908;-54
2023/03/06 02:06:51;;;;;;;;;;;20.30;77.20;;;;;;5080531;28;19966;-51
2023/03/06 02:09:17;;;;;;;;;;;20.30;77.20;;;;;;5080204;28;19915;-54
2023/03/06 02:11:42;;;;;;;;;;;20.30;77.10;;;;;;5080217;28;19938;-53
2023/03/06 02:14:09;;;;;;;;;;;20.30;77.50;;;;;;5080498;28;19909;-55
2023/03/06 02:16:35;;;;;;;;;;;20.30;77.60;;;;;;5080719;28;19908;-51
2023/03/06 02:19:01;;;;;;;;;;;20.30;77.40;;;;;;5080133;28;19915;-50
2023/03/06 02:21:34;;;;;;;;;;;20.30;77.30;;;;;;5062460;28;19915;-52
2023/03/06 02:24:02;;;;;;;;;;;20.30;77.80;;;;;;5080427;28;20327;-51
2023/03/06 02:26:28;;;;;;;;;;;20.30;77.60;;;;;;5080255;28;20018;-50
2023/03/06 02:28:56;;;;;;;;;;;20.30;77.50;;;;;;5080346;28;20417;-52
2023/03/06 02:31:26;;;;;;;;;;;20.30;77.20;;;;;;5080603;28;19912;-52
2023/03/06 02:34:18;;;;;;;;;;;20.30;77.30;;;;;;5080035;28;20007;-53
2023/03/06 02:36:54;;;;;;;;;;;20.30;77.20;;;;;;5031672;28;20309;-50
2023/03/06 02:39:24;;;;;;;;;;;20.30;77.50;;;;;;5080223;28;19924;-54
2023/03/06 02:41:50;;;;;;;;;;;20.40;77.40;;;;;;5080201;28;19909;-53
2023/03/06 02:44:15;;;;;;;;;;;20.40;77.50;;;;;;5080225;28;20004;-52
2023/03/06 02:46:41;;;;;;;;;;;20.40;77.30;;;;;;5080096;28;19942;-53
2023/03/06 02:49:06;;;;;;;;;;;20.40;77.40;;;;;;5080407;28;19909;-54
2023/03/06 02:51:32;;;;;;;;;;;20.40;77.10;;;;;;5079818;28;19912;-53
2023/03/06 02:53:58;;;;;;;;;;;20.40;77.10;;;;;;5079856;28;20321;-52
2023/03/06 02:56:23;;;;;;;;;;;20.40;77.30;;;;;;5079812;28;19908;-51
2023/03/06 02:58:49;;;;;;;;;;;20.40;77.80;;;;;;5078095;28;20003;-51
2023/03/06 03:01:14;;;;;;;;;;;20.40;77.30;;;;;;5077175;28;20343;-53
2023/03/06 03:03:40;;;;;;;;;;;20.40;77.60;;;;;;5076864;28;19908;-52
2023/03/06 03:06:06;;;;;;;;;;;20.40;77.30;;;;;;5076411;28;19922;-55
2023/03/06 03:08:31;;;;;;;;;;;20.40;77.30;;;;;;5076853;28;19912;-51
2023/03/06 03:10:57;;;;;;;;;;;20.40;77.80;;;;;;5058725;28;19908;-54
2023/03/06 03:13:22;;;;;;;;;;;20.40;77.50;;;;;;5076664;28;19954;-52
2023/03/06 03:16:01;;;;;;;;;;;20.40;77.80;;;;;;5058371;28;20011;-52
2023/03/06 03:18:27;;;;;;;;;;;20.40;77.70;;;;;;5076308;28;20260;-52
2023/03/06 03:20:53;;;;;;;;;;;20.30;77.30;;;;;;5058563;28;20420;-51
2023/03/06 03:23:18;;;;;;;;;;;20.40;77.70;;;;;;5076418;28;19954;-55
2023/03/06 03:25:44;;;;;;;;;;;20.30;77.40;;;;;;5076060;28;20283;-52
2023/03/06 03:28:09;;;;;;;;;;;20.30;77.90;;;;;;5076075;28;19954;-54
2023/03/06 03:30:35;;;;;;;;;;;20.30;77.60;;;;;;5058449;28;19966;-53
2023/03/06 03:33:00;;;;;;;;;;;20.40;77.60;;;;;;5076236;28;19912;-52
2023/03/06 03:35:26;;;;;;;;;;;20.40;77.70;;;;;;5076232;28;19909;-54
2023/03/06 03:37:53;;;;;;;;;;;20.30;77.60;;;;;;5058219;28;19921;-52
2023/03/06 03:40:19;;;;;;;;;;;20.30;77.50;;;;;;5075733;28;19926;-51
2023/03/06 03:42:44;;;;;;;;;;;20.30;77.50;;;;;;5075837;28;19908;-52
2023/03/06 03:45:10;;;;;;;;;;;20.40;78.10;;;;;;5075936;28;19964;-52
2023/03/06 03:47:35;;;;;;;;;;;20.30;77.60;;;;;;5058023;28;20414;-50
2023/03/06 03:50:01;;;;;;;;;;;20.30;77.10;;;;;;5076238;28;20007;-51
2023/03/06 03:52:26;;;;;;;;;;;20.30;77.70;;;;;;5075913;28;19931;-54
2023/03/06 03:54:52;;;;;;;;;;;20.20;77.90;;;;;;5075559;28;19909;-53
2023/03/06 03:57:17;;;;;;;;;;;20.20;77.70;;;;;;5057953;28;19935;-53
2023/03/06 03:59:43;;;;;;;;;;;20.20;77.90;;;;;;5057871;28;19981;-55
2023/03/06 04:02:08;;;;;;;;;;;20.20;78.00;;;;;;5075735;28;19914;-49
2023/03/06 04:04:34;;;;;;;;;;;20.10;77.80;;;;;;5075340;28;19913;-52
2023/03/06 04:06:59;;;;;;;;;;;20.20;77.80;;;;;;5075308;28;19915;-52
2023/03/06 04:09:25;;;;;;;;;;;20.20;77.80;;;;;;5075482;28;19916;-53
2023/03/06 04:11:50;;;;;;;;;;;20.20;77.90;;;;;;5074331;28;20020;-52
2023/03/06 04:14:16;;;;;;;;;;;20.30;77.90;;;;;;5075023;28;19962;-53
2023/03/06 04:16:41;;;;;;;;;;;20.30;77.70;;;;;;5057117;28;19912;-51
2023/03/06 04:19:06;;;;;;;;;;;20.30;78.10;;;;;;5075113;28;20366;-54
2023/03/06 04:21:32;;;;;;;;;;;20.30;77.60;;;;;;5074934;28;19916;-49
2023/03/06 04:23:57;;;;;;;;;;;20.30;77.60;;;;;;5057242;28;19943;-51
2023/03/06 04:26:23;;;;;;;;;;;20.30;77.70;;;;;;5074819;28;19924;-52
2023/03/06 04:28:48;;;;;;;;;;;20.30;77.60;;;;;;5057240;28;20279;-52
2023/03/06 04:31:14;;;;;;;;;;;20.40;77.40;;;;;;5074735;28;19916;-54
2023/03/06 04:33:39;;;;;;;;;;;20.30;77.50;;;;;;5075217;28;19912;-51
2023/03/06 04:36:05;;;;;;;;;;;20.40;77.80;;;;;;5074868;28;20408;-55
2023/03/06 04:38:30;;;;;;;;;;;20.40;77.80;;;;;;5074834;28;19908;-53
2023/03/06 04:40:56;;;;;;;;;;;20.30;77.80;;;;;;5056864;28;19943;-51
2023/03/06 04:43:21;;;;;;;;;;;20.30;77.60;;;;;;5074911;28;19939;-51
2023/03/06 04:45:47;;;;;;;;;;;20.30;77.60;;;;;;5056852;28;19966;-50
2023/03/06 04:48:16;;;;;;;;;;;20.40;77.50;;;;;;5074733;28;20268;-54
2023/03/06 04:50:41;;;;;;;;;;;20.30;77.50;;;;;;5075003;28;19912;-53
2023/03/06 04:53:07;;;;;;;;;;;20.30;77.50;;;;;;5074985;28;20038;-54
2023/03/06 04:55:33;;;;;;;;;;;20.30;78.00;;;;;;5074872;28;20252;-50
2023/03/06 04:57:58;;;;;;;;;;;20.40;77.70;;;;;;5074274;28;19916;-55
2023/03/06 05:00:29;;;;;;;;;;;20.40;77.70;;;;;;5074574;28;19908;-51
2023/03/06 05:02:55;;;;;;;;;;;20.40;77.90;;;;;;5074577;28;19908;-54
2023/03/06 05:05:20;;;;;;;;;;;20.40;77.50;;;;;;5074446;28;19969;-55
2023/03/06 05:07:46;;;;;;;;;;;20.40;77.40;;;;;;5074516;28;20431;-51
2023/03/06 05:10:13;;;;;;;;;;;20.40;77.40;;;;;;5071641;28;19962;-50
2023/03/06 05:12:39;;;;;;;;;;;20.40;77.70;;;;;;5073821;28;19920;-51
2023/03/06 05:15:05;;;;;;;;;;;20.50;76.80;;;;;;5074329;28;19962;-49
2023/03/06 05:17:31;;;;;;;;;;;20.50;78.30;;;;;;5073448;28;19958;-52
2023/03/06 05:19:57;;;;;;;;;;;20.60;78.20;;;;;;5071945;28;19916;-49
2023/03/06 05:22:22;;;;;;;;;;;20.30;69.70;;;;;;5072028;28;19912;-48
2023/03/06 05:24:48;;;;;;;;;;;20.10;73.30;;;;;;5072394;28;19920;-51
2023/03/06 05:27:13;;;;;;;;;;;20.20;75.90;;;;;;5073150;28;19920;-51
2023/03/06 05:29:39;;;;;;;;;;;20.20;76.50;;;;;;5072200;28;19918;-53
2023/03/06 05:32:04;;;;;;;;;;;20.30;76.70;;;;;;5056103;28;20378;-50
2023/03/06 05:34:30;;;;;;;;;;;20.30;76.80;;;;;;5072786;28;19950;-52
2023/03/06 05:36:55;;;;;;;;;;;20.30;76.70;;;;;;5068513;28;19912;-51
2023/03/06 05:39:21;;;;;;;;;;;20.30;77.00;;;;;;5071052;28;20392;-48
2023/03/06 05:41:46;;;;;;;;;;;19.90;72.60;;;;;;5074311;28;19915;-51
2023/03/06 05:44:11;;;;;;;;;;;20.00;75.40;;;;;;5073883;28;19962;-53
2023/03/06 05:46:37;;;;;;;;;;;20.10;75.90;;;;;;5073437;28;19956;-51
2023/03/06 05:49:02;;;;;;;;;;;20.20;76.50;;;;;;5073907;28;19908;-51
2023/03/06 05:51:28;;;;;;;;;;;20.20;76.40;;;;;;5073907;28;19908;-51
2023/03/06 05:53:54;;;;;;;;;;;20.20;76.30;;;;;;5072578;28;19915;-53
2023/03/06 05:56:20;;;;;;;;;;;20.20;76.40;;;;;;5074223;28;19951;-50
2023/03/06 05:58:46;;;;;;;;;;;20.20;76.40;;;;;;5073512;28;19983;-50
2023/03/06 06:01:13;;;;;;;;;;;20.30;76.30;;;;;;5072036;28;19921;-51
2023/03/06 06:03:39;;;;;;;;;;;20.30;76.30;;;;;;5073708;28;19999;-50
2023/03/06 06:06:08;;;;;;;;;;;20.20;76.50;;;;;;5073748;28;19966;-50
2023/03/06 06:08:34;;;;;;;;;;;20.30;76.20;;;;;;5073496;28;19920;-48
2023/03/06 06:10:59;;;;;;;;;;;20.30;76.20;;;;;;5073331;28;19908;-49
2023/03/06 06:13:25;;;;;;;;;;;20.30;76.50;;;;;;5073332;28;20414;-52
2023/03/06 06:15:50;;;;;;;;;;;20.30;76.30;;;;;;5073492;28;20050;-52
2023/03/06 06:18:16;;;;;;;;;;;20.30;76.20;;;;;;5073426;28;19931;-51
2023/03/06 06:20:41;;;;;;;;;;;20.30;76.40;;;;;;5073277;28;19912;-50
2023/03/06 06:23:08;;;;;;;;;;;20.30;76.50;;;;;;5073252;28;19991;-50
2023/03/06 06:25:34;;;;;;;;;;;20.30;76.40;;;;;;5073611;28;19985;-52
2023/03/06 06:27:59;;;;;;;;;;;20.30;76.40;;;;;;5072033;28;20301;-49
2023/03/06 06:30:25;;;;;;;;;;;20.30;76.60;;;;;;5073360;28;19909;-52
2023/03/06 06:32:50;;;;;;;;;;;20.30;76.50;;;;;;5073474;28;19954;-50
2023/03/06 06:35:16;;;;;;;;;;;20.30;76.40;;;;;;5074831;28;19935;-52
2023/03/06 06:37:41;;;;;;;;;;;20.30;76.50;;;;;;5075869;28;19912;-51
2023/03/06 06:40:07;;;;;;;;;;;20.30;76.30;;;;;;5076640;28;19921;-49
2023/03/06 06:42:35;;;;;;;;;;;20.20;76.10;;;;;;5077289;28;19908;-53
2023/03/06 06:45:01;;;;;;;;;;;20.20;76.20;;;;;;5076789;28;19916;-53
2023/03/06 06:47:26;;;;;;;;;;;20.20;76.60;;;;;;5076909;28;19934;-52
2023/03/06 06:49:52;;;;;;;;;;;20.20;76.30;;;;;;5076514;28;19981;-49
2023/03/06 06:52:18;;;;;;;;;;;20.30;76.30;;;;;;5076486;28;19909;-51
2023/03/06 06:54:43;;;;;;;;;;;20.20;76.40;;;;;;5076350;28;19931;-51
2023/03/06 06:57:10;;;;;;;;;;;20.30;76.70;;;;;;5076538;28;19998;-54
2023/03/06 06:59:35;;;;;;;;;;;20.30;76.30;;;;;;5076771;28;19908;-52
2023/03/06 07:02:00;;;;;;;;;;;20.30;76.40;;;;;;5076563;28;19934;-47
2023/03/06 07:04:26;;;;;;;;;;;20.30;76.60;;;;;;5074974;28;20008;-52
2023/03/06 07:06:54;;;;;;;;;;;20.30;76.40;;;;;;5076333;28;20361;-48
2023/03/06 07:09:19;;;;;;;;;;;20.30;76.50;;;;;;5076045;28;20346;-53
2023/03/06 07:11:45;;;;;;;;;;;20.30;76.40;;;;;;5076674;28;19908;-49
2023/03/06 07:14:10;;;;;;;;;;;20.30;76.20;;;;;;5075899;28;20267;-53
2023/03/06 07:16:35;;;;;;;;;;;20.30;76.60;;;;;;5076401;28;19920;-50
2023/03/06 07:19:01;;;;;;;;;;;20.30;76.20;;;;;;5075555;28;20291;-51
2023/03/06 07:21:27;;;;;;;;;;;20.30;76.40;;;;;;5076065;28;19908;-52
2023/03/06 07:23:53;;;;;;;;;;;20.30;76.50;;;;;;5075819;28;19909;-47
2023/03/06 07:26:18;;;;;;;;;;;20.30;76.60;;;;;;5076163;28;19924;-51
2023/03/06 07:28:44;;;;;;;;;;;20.30;76.30;;;;;;5074914;28;20279;-51
2023/03/06 07:31:10;;;;;;;;;;;20.30;76.20;;;;;;5076141;28;20003;-48
2023/03/06 07:33:36;;;;;;;;;;;20.30;76.40;;;;;;5075959;28;19912;-49
2023/03/06 07:36:02;;;;;;;;;;;20.30;76.40;;;;;;5075852;28;19935;-51
2023/03/06 07:38:27;;;;;;;;;;;20.30;76.40;;;;;;5075673;28;20359;-48
2023/03/06 07:40:53;;;;;;;;;;;20.30;75.90;;;;;;5075874;28;19974;-49
2023/03/06 07:43:18;;;;;;;;;;;20.30;76.10;;;;;;5074200;28;20418;-48
2023/03/06 07:45:45;;;;;;;;;;;20.30;76.60;;;;;;5074833;28;19923;-50
2023/03/06 07:48:11;;;;;;;;;;;20.40;76.30;;;;;;5075882;28;19950;-52
2023/03/06 07:50:37;;;;;;;;;;;20.40;76.10;;;;;;5075898;28;19908;-48
2023/03/06 07:53:03;;;;;;;;;;;20.30;76.10;;;;;;5075412;28;19955;-49
2023/03/06 07:55:28;;;;;;;;;;;20.40;75.80;;;;;;5074260;28;19916;-49
2023/03/06 07:57:54;;;;;;;;;;;20.40;76.20;;;;;;5075240;28;19950;-51
2023/03/06 08:00:19;;;;;;;;;;;20.40;76.20;;;;;;5075977;28;19916;-51
2023/03/06 08:02:45;;;;;;;;;;;20.40;76.10;;;;;;5075303;28;20317;-51
2023/03/06 08:05:12;;;;;;;;;;;20.40;76.20;;;;;;5075329;28;19916;-50
2023/03/06 08:07:38;;;;;;;;;;;20.40;76.10;;;;;;5075360;28;19908;-51
2023/03/06 08:10:03;;;;;;;;;;;20.30;76.50;;;;;;5075228;28;19915;-53
2023/03/06 08:12:29;;;;;;;;;;;20.30;76.70;;;;;;5073694;28;19974;-51
2023/03/06 08:14:54;;;;;;;;;;;20.30;76.50;;;;;;5075004;28;20020;-48
2023/03/06 08:17:20;;;;;;;;;;;20.30;76.00;;;;;;5074790;28;19916;-52
2023/03/06 08:19:45;;;;;;;;;;;20.30;76.20;;;;;;5075273;28;19909;-51
2023/03/06 08:22:12;;;;;;;;;;;20.30;75.70;;;;;;5073922;28;19916;-51
2023/03/06 08:24:38;;;;;;;;;;;20.30;76.20;;;;;;5074704;28;19912;-53
2023/03/06 08:27:03;;;;;;;;;;;20.30;76.30;;;;;;5074968;28;19915;-50
2023/03/06 08:29:29;;;;;;;;;;;20.20;76.10;;;;;;5074678;28;19908;-49
2023/03/06 08:31:54;;;;;;;;;;;20.30;76.30;;;;;;5074787;28;19908;-49
2023/03/06 08:34:21;;;;;;;;;;;20.20;76.30;;;;;;5075083;28;19931;-51
2023/03/06 08:36:46;;;;;;;;;;;20.30;76.20;;;;;;5074719;28;19999;-51
2023/03/06 08:39:12;;;;;;;;;;;20.30;76.60;;;;;;5074249;28;20005;-52
2023/03/06 08:41:38;;;;;;;;;;;20.30;76.20;;;;;;5074682;28;19919;-53
2023/03/06 08:44:04;;;;;;;;;;;20.20;76.60;;;;;;5073323;28;19909;-52
2023/03/06 08:46:29;;;;;;;;;;;20.10;76.30;;;;;;5073189;28;20458;-51
2023/03/06 08:48:55;;;;;;;;;;;20.10;76.70;;;;;;5074847;28;19912;-51
2023/03/06 08:51:21;;;;;;;;;;;20.10;76.70;;;;;;5074614;28;19916;-50
2023/03/06 08:53:47;;;;;;;;;;;20.00;77.00;;;;;;5073276;28;20283;-52
2023/03/06 08:56:15;;;;;;;;;;;20.00;77.20;;;;;;5074154;28;20348;-52
2023/03/06 08:58:41;;;;;;;;;;;19.90;77.00;;;;;;5074503;28;19914;-53
2023/03/06 09:01:11;;;;;;;;;;;19.80;77.40;;;;;;5074246;28;19999;-51
2023/03/06 09:03:37;;;;;;;;;;;19.80;77.50;;;;;;5072794;28;19916;-53
2023/03/06 09:06:02;;;;;;;;;;;19.80;77.50;;;;;;5074305;28;19923;-53
2023/03/06 09:08:28;;;;;;;;;;;19.80;77.90;;;;;;5074026;28;19912;-49
2023/03/06 09:10:53;;;;;;;;;;;19.70;77.60;;;;;;5072949;28;20271;-52
2023/03/06 09:13:19;;;;;;;;;;;19.70;77.70;;;;;;5073940;28;19909;-52
2023/03/06 09:15:45;;;;;;;;;;;19.60;78.10;;;;;;5072568;28;20360;-54
2023/03/06 09:18:10;;;;;;;;;;;19.70;78.00;;;;;;5072452;28;19996;-49
2023/03/06 09:20:36;;;;;;;;;;;19.60;78.20;;;;;;5073791;28;19916;-54
2023/03/06 09:23:01;;;;;;;;;;;19.60;78.20;;;;;;5072872;28;19912;-54
2023/03/06 09:25:27;;;;;;;;;;;19.60;77.90;;;;;;5072485;28;19924;-51
2023/03/06 09:27:52;;;;;;;;;;;19.60;78.10;;;;;;5074062;28;19909;-52
2023/03/06 09:30:18;;;;;;;;;;;19.60;78.00;;;;;;5073968;28;20292;-51
2023/03/06 09:32:43;;;;;;;;;;;19.70;78.30;;;;;;5073687;28;19908;-51
2023/03/06 09:35:09;;;;;;;;;;;19.70;77.70;;;;;;5073727;28;19931;-54
2023/03/06 09:37:35;;;;;;;;;;;19.70;77.30;;;;;;5073665;28;19916;-53
2023/03/06 09:40:00;;;;;;;;;;;19.80;77.70;;;;;;5073415;28;19974;-52
2023/03/06 09:42:27;;;;;;;;;;;19.80;77.50;;;;;;5073950;28;20410;-53
2023/03/06 09:44:54;;;;;;;;;;;19.90;77.30;;;;;;5073598;28;19915;-53
2023/03/06 09:47:38;;;;;;;;;;;20.00;77.50;;;;;;5073802;28;19915;-50
2023/03/06 09:50:10;;;;;;;;;;;20.10;77.10;;;;;;5073768;28;19909;-52
2023/03/06 09:52:44;;;;;;;;;;;20.10;77.10;;;;;;5073434;28;19908;-50
2023/03/06 09:55:13;;;;;;;;;;;20.20;77.00;;;;;;5074196;28;19908;-51
2023/03/06 09:57:57;;;;;;;;;;;20.20;77.10;;;;;;5073685;28;19915;-51
2023/03/06 10:00:25;;;;;;;;;;;20.20;77.00;;;;;;5073616;28;19912;-49
2023/03/06 10:03:09;;;;;;;;;;;20.20;77.60;;;;;;5073536;28;19916;-49
2023/03/06 10:05:39;;;;;;;;;;;20.20;76.90;;;;;;5072254;28;20290;-51
2023/03/06 10:08:05;;;;;;;;;;;20.20;76.60;;;;;;5074545;28;20311;-51
2023/03/06 10:10:46;;;;;;;;;;;20.20;76.70;;;;;;5077670;28;19909;-53
2023/03/06 10:13:22;;;;;;;;;;;20.20;76.70;;;;;;5076324;28;19908;-53
2023/03/06 10:15:48;;;;;;;;;;;20.30;76.60;;;;;;5077427;28;19908;-52
2023/03/06 10:18:14;;;;;;;;;;;20.30;76.60;;;;;;5077176;28;19916;-48
2023/03/06 10:21:01;;;;;;;;;;;20.30;76.60;;;;;;5077528;28;19912;-49
2023/03/06 10:23:41;;;;;;;;;;;20.40;76.50;;;;;;5077627;28;19917;-49
2023/03/06 10:26:14;;;;;;;;;;;20.30;76.50;;;;;;5077245;28;19924;-51
2023/03/06 10:28:43;;;;;;;;;;;20.30;76.50;;;;;;5077392;28;20264;-50
2023/03/06 10:31:12;;;;;;;;;;;20.30;76.20;;;;;;5077223;28;19909;-51
2023/03/06 10:33:43;;;;;;;;;;;20.30;76.40;;;;;;5077068;28;19909;-51
2023/03/06 10:36:13;;;;;;;;;;;20.30;76.70;;;;;;5075203;28;19946;-50
2023/03/06 10:38:39;;;;;;;;;;;20.20;76.70;;;;;;5075413;28;19909;-47
2023/03/06 10:41:12;;;;;;;;;;;20.30;76.80;;;;;;5076408;28;20326;-50
2023/03/06 10:43:39;;;;;;;;;;;20.30;76.70;;;;;;5076718;28;20278;-54
2023/03/06 10:46:06;;;;;;;;;;;20.40;76.40;;;;;;5076846;28;19916;-50
2023/03/06 10:48:34;;;;;;;;;;;20.50;76.40;;;;;;5075244;28;19908;-51
2023/03/06 10:51:18;;;;;;;;;;;20.50;75.90;;;;;;5077007;28;19912;-52
2023/03/06 10:53:54;;;;;;;;;;;20.60;75.80;;;;;;5075407;28;19915;-48
2023/03/06 10:56:28;;;;;;;;;;;20.60;75.90;;;;;;5076205;28;19912;-48
2023/03/06 10:59:07;;;;;;;;;;;20.60;76.00;;;;;;5076423;28;19908;-53
2023/03/06 11:01:32;;;;;;;;;;;20.60;75.90;;;;;;5076662;28;20332;-51
2023/03/06 11:04:13;;;;;;;;;;;20.60;75.80;;;;;;5076620;28;19908;-52
2023/03/06 11:06:38;;;;;;;;;;;20.50;76.00;;;;;;5076509;28;19917;-52
2023/03/06 11:09:13;;;;;;;;;;;20.50;76.00;;;;;;5075186;28;19915;-49
2023/03/06 11:11:38;;;;;;;;;;;20.40;76.20;;;;;;5074827;28;19959;-50
2023/03/06 11:14:12;;;;;;;;;;;20.40;76.30;;;;;;5076685;28;19955;-52
2023/03/06 11:16:37;;;;;;;;;;;20.30;76.50;;;;;;5076040;28;19909;-54
2023/03/06 11:19:05;;;;;;;;;;;20.30;76.80;;;;;;5076393;28;19930;-51
2023/03/06 11:21:32;;;;;;;;;;;20.20;76.70;;;;;;5075966;28;19954;-50
2023/03/06 11:24:24;;;;;;;;;;;20.20;76.90;;;;;;5075959;28;20272;-51
2023/03/06 11:26:54;;;;;;;;;;;20.10;77.10;;;;;;5072534;28;20007;-54
2023/03/06 11:29:28;;;;;;;;;;;20.10;76.90;;;;;;5076311;28;19908;-52
2023/03/06 11:32:09;;;;;;;;;;;20.10;77.20;;;;;;5075942;28;19915;-51
2023/03/06 11:34:43;;;;;;;;;;;20.10;77.00;;;;;;5074415;28;19908;-54
2023/03/06 11:37:29;;;;;;;;;;;20.20;77.20;;;;;;5076100;28;19909;-51
2023/03/06 11:40:10;;;;;;;;;;;20.10;76.90;;;;;;5044813;28;19956;-53
2023/03/06 11:42:36;;;;;;;;;;;20.20;77.00;;;;;;5075802;28;19909;-51
2023/03/06 11:45:01;;;;;;;;;;;20.20;76.90;;;;;;5075978;28;19955;-51
2023/03/06 11:47:38;;;;;;;;;;;20.30;76.80;;;;;;5075571;28;19954;-52
2023/03/06 11:50:04;;;;;;;;;;;20.30;76.70;;;;;;5075607;28;19914;-52
2023/03/06 11:52:36;;;;;;;;;;;20.30;76.60;;;;;;5075674;28;19912;-53
2023/03/06 11:55:02;;;;;;;;;;;20.30;76.50;;;;;;5075958;28;20358;-49
2023/03/06 11:57:45;;;;;;;;;;;20.30;76.70;;;;;;5075524;28;19975;-53
2023/03/06 12:00:11;;;;;;;;;;;20.30;76.50;;;;;;5075216;28;19909;-52
2023/03/06 12:02:41;;;;;;;;;;;20.30;76.90;;;;;;5075585;28;19916;-49
2023/03/06 12:05:09;;;;;;;;;;;20.30;76.70;;;;;;5075598;28;19916;-50
2023/03/06 12:07:39;;;;;;;;;;;20.30;76.80;;;;;;5075263;28;20260;-51
2023/03/06 12:10:15;;;;;;;;;;;20.20;76.70;;;;;;5074888;28;20306;-54
2023/03/06 12:12:41;;;;;;;;;;;20.20;76.70;;;;;;5075313;28;19909;-52
2023/03/06 12:15:18;;;;;;;;;;;20.20;76.70;;;;;;5074911;28;20389;-50
2023/03/06 12:17:53;;;;;;;;;;;20.20;76.80;;;;;;5075498;28;20278;-53
2023/03/06 12:20:18;;;;;;;;;;;20.20;76.60;;;;;;5074622;28;19920;-50
2023/03/06 12:22:53;;;;;;;;;;;20.20;76.80;;;;;;5074760;28;19916;-52
2023/03/06 12:25:38;;;;;;;;;;;20.20;76.90;;;;;;5074681;28;19916;-53
2023/03/06 12:28:22;;;;;;;;;;;20.20;76.80;;;;;;5074590;28;19909;-50
2023/03/06 12:30:53;;;;;;;;;;;20.20;76.80;;;;;;5074482;28;20302;-51
2023/03/06 12:33:27;;;;;;;;;;;20.20;76.60;;;;;;5072931;28;19909;-50
2023/03/06 12:35:56;;;;;;;;;;;20.30;76.70;;;;;;5075122;28;19915;-51
2023/03/06 12:38:31;;;;;;;;;;;20.30;76.80;;;;;;5074507;28;20471;-49
2023/03/06 12:40:56;;;;;;;;;;;20.20;76.80;;;;;;5075184;28;20298;-52
2023/03/06 12:43:36;;;;;;;;;;;20.30;76.80;;;;;;5075038;28;19966;-50
2023/03/06 12:46:08;;;;;;;;;;;20.30;76.60;;;;;;5073293;28;19920;-49
2023/03/06 12:48:35;;;;;;;;;;;20.30;76.80;;;;;;5074662;28;19915;-50
2023/03/06 12:51:00;;;;;;;;;;;20.30;76.80;;;;;;5074825;28;19908;-53
2023/03/06 12:53:27;;;;;;;;;;;20.20;76.70;;;;;;5072858;28;19908;-51
2023/03/06 12:55:53;;;;;;;;;;;20.30;76.90;;;;;;5074424;28;19916;-51
2023/03/06 12:58:28;;;;;;;;;;;20.20;76.90;;;;;;5074148;28;19908;-50
2023/03/06 13:01:06;;;;;;;;;;;20.20;76.80;;;;;;5074464;28;19962;-49
2023/03/06 13:03:46;;;;;;;;;;;20.20;77.00;;;;;;5074102;28;19966;-52
2023/03/06 13:06:13;;;;;;;;;;;20.10;77.00;;;;;;5072539;28;20101;-53
2023/03/06 13:08:51;;;;;;;;;;;20.10;77.00;;;;;;5074265;28;19973;-51
2023/03/06 13:11:26;;;;;;;;;;;20.10;77.00;;;;;;5074342;28;20388;-50
2023/03/06 13:13:52;;;;;;;;;;;20.00;77.10;;;;;;5073989;28;20375;-50
2023/03/06 13:16:24;;;;;;;;;;;20.00;77.10;;;;;;5074078;28;19934;-49
2023/03/06 13:18:58;;;;;;;;;;;20.00;77.40;;;;;;5074085;28;19908;-50
2023/03/06 13:21:57;;;;;;;;;;;19.90;77.50;;;;;;5074144;28;19908;-53
2023/03/06 13:24:23;;;;;;;;;;;19.90;77.60;;;;;;5073787;28;19909;-54
2023/03/06 13:26:48;;;;;;;;;;;19.90;77.50;;;;;;5072571;28;20126;-53
2023/03/06 13:29:32;;;;;;;;;;;19.90;77.50;;;;;;5073676;28;19946;-51
2023/03/06 13:32:01;;;;;;;;;;;19.90;77.50;;;;;;5072388;28;19979;-54
2023/03/06 13:34:39;;;;;;;;;;;19.90;77.40;;;;;;5073669;28;19970;-51
2023/03/06 13:37:22;;;;;;;;;;;19.90;77.60;;;;;;5074029;28;19908;-53
2023/03/06 13:39:53;;;;;;;;;;;19.90;77.60;;;;;;5073813;28;19921;-53
2023/03/06 13:42:32;;;;;;;;;;;19.90;77.20;;;;;;5073437;28;19912;-54
2023/03/06 13:45:05;;;;;;;;;;;20.00;77.40;;;;;;5072056;28;20347;-49
2023/03/06 13:47:30;;;;;;;;;;;20.00;77.30;;;;;;5072466;28;20275;-54
2023/03/06 13:49:56;;;;;;;;;;;20.10;77.30;;;;;;5073506;28;19909;-52
2023/03/06 13:52:32;;;;;;;;;;;20.10;77.00;;;;;;5073548;28;19912;-53
2023/03/06 13:55:08;;;;;;;;;;;20.20;76.90;;;;;;5073787;28;19935;-53
2023/03/06 13:57:44;;;;;;;;;;;20.20;76.90;;;;;;5072086;28;20399;-53
2023/03/06 14:00:26;;;;;;;;;;;20.30;76.70;;;;;;5073743;28;19908;-51
2023/03/06 14:03:07;;;;;;;;;;;20.30;76.50;;;;;;5073747;28;20385;-51
2023/03/06 14:05:46;;;;;;;;;;;20.30;76.60;;;;;;5071892;28;20014;-49
2023/03/06 14:08:25;;;;;;;;;;;20.30;76.60;;;;;;5073393;28;19916;-51
2023/03/06 14:11:05;;;;;;;;;;;20.40;76.50;;;;;;5073521;28;19919;-51
2023/03/06 14:13:35;;;;;;;;;;;20.30;76.40;;;;;;5073737;28;19999;-54
2023/03/06 14:16:08;;;;;;;;;;;20.30;76.10;;;;;;5072127;28;19916;-52
2023/03/06 14:18:41;;;;;;;;;;;20.40;76.50;;;;;;5073386;28;19915;-54
2023/03/06 14:21:12;;;;;;;;;;;20.40;76.30;;;;;;5073055;28;20240;-51